Time;durP1;ratioP1;P1;durP2;ratioP2;P2;SDS_P1;SDS_P2;PMS_P1;PMS_P2;Temp;Humidity;BMP_temperature;BMP_pressure;BME280_temperature;BME280_humidity;BME280_pressure;Samples;Min_cycle;Max_cycle;Signal;HPM_P1;HPM_P2
2021/05/23 00:01:45;;;;;;;4.00;1.50;;;;;;;9.32;100.00;100951.27;1808276;79;26204;-79
2021/05/23 00:04:15;;;;;;;3.73;1.80;;;;;;;9.39;100.00;100962.08;1808153;78;26228;-79
2021/05/23 00:06:44;;;;;;;3.63;1.90;;;;;;;9.31;100.00;100963.46;1808222;79;26211;-78
2021/05/23 00:09:14;;;;;;;4.07;1.60;;;;;;;9.31;100.00;100961.24;1808186;79;26208;-78
2021/05/23 00:11:44;;;;;;;3.53;1.60;;;;;;;9.33;100.00;100960.39;1808196;79;26647;-79
2021/05/23 00:14:14;;;;;;;4.10;1.87;;;;;;;9.32;100.00;100968.45;1808277;79;26262;-77
2021/05/23 00:16:44;;;;;;;3.23;1.50;;;;;;;9.31;100.00;100962.63;1808221;79;26804;-78
2021/05/23 00:19:14;;;;;;;2.47;1.40;;;;;;;9.27;100.00;100965.67;1808260;79;26371;-79
2021/05/23 00:21:45;;;;;;;2.57;1.53;;;;;;;9.22;100.00;100965.66;1808231;79;26278;-78
2021/05/23 00:24:14;;;;;;;6.63;1.87;;;;;;;9.23;100.00;100972.87;1808205;79;26278;-78
2021/05/23 00:26:44;;;;;;;9.27;2.07;;;;;;;9.15;100.00;100972.85;1808158;79;26868;-77
2021/05/23 00:29:15;;;;;;;4.93;1.80;;;;;;;9.14;100.00;100976.17;1808128;79;26293;-77
2021/05/23 00:31:46;;;;;;;3.40;1.50;;;;;;;9.05;100.00;100975.03;1808141;79;26663;-78
2021/05/23 00:34:16;;;;;;;5.30;2.00;;;;;;;9.10;100.00;100979.77;1808231;79;26325;-78
2021/05/23 00:36:46;;;;;;;2.13;1.50;;;;;;;9.09;100.00;100981.70;1808183;79;26289;-79
2021/05/23 00:39:16;;;;;;;2.43;1.63;;;;;;;8.98;100.00;100984.71;1808179;79;26737;-79
2021/05/23 00:41:46;;;;;;;3.63;1.77;;;;;;;9.00;100.00;100986.64;1808122;79;26721;-78
2021/05/23 00:44:16;;;;;;;3.50;1.83;;;;;;;8.97;100.00;100985.26;1808203;79;26219;-78
2021/05/23 00:46:46;;;;;;;4.57;1.70;;;;;;;8.78;100.00;100992.36;1808211;79;26285;-81
2021/05/23 00:49:16;;;;;;;5.77;1.90;;;;;;;8.74;100.00;100987.09;1808188;79;26713;-78
2021/05/23 00:51:46;;;;;;;4.07;1.80;;;;;;;8.76;100.00;100990.98;1808182;79;26659;-78
2021/05/23 00:54:16;;;;;;;3.70;1.73;;;;;;;8.80;100.00;100994.33;1808255;79;26211;-78
2021/05/23 00:56:46;;;;;;;3.83;1.80;;;;;;;8.76;100.00;100998.74;1808196;79;26205;-78
2021/05/23 00:59:17;;;;;;;5.63;1.83;;;;;;;8.65;100.00;100993.69;1808076;77;26777;-77
2021/05/23 01:02:35;;;;;;;7.10;1.53;;;;;;;8.58;100.00;100997.80;1808123;79;26721;-78
2021/05/23 01:05:07;;;;;;;3.03;1.47;;;;;;;8.69;100.00;101003.67;1808234;79;26203;-78
2021/05/23 01:07:39;;;;;;;4.53;1.43;;;;;;;8.60;100.00;101001.96;1808174;79;26344;-78
2021/05/23 01:10:13;;;;;;;2.23;1.63;;;;;;;8.60;100.00;101001.16;1808132;79;26273;-78
2021/05/23 01:13:36;;;;;;;4.77;1.33;;;;;;;8.61;100.00;100997.27;1808180;79;26215;-78
2021/05/23 01:16:08;;;;;;;1.80;1.17;;;;;;;8.58;100.00;101006.11;1798947;79;26250;-79
2021/05/23 01:18:46;;;;;;;3.93;1.60;;;;;;;8.51;100.00;101011.06;1808172;79;26300;-78
2021/05/23 01:21:17;;;;;;;3.00;1.67;;;;;;;8.49;100.00;101007.17;1808191;79;26231;-78
2021/05/23 01:23:49;;;;;;;3.53;1.50;;;;;;;8.38;100.00;101006.84;1808183;79;26369;-78
2021/05/23 01:26:19;;;;;;;2.90;1.40;;;;;;;8.33;100.00;101013.72;1808134;79;26812;-78
2021/05/23 01:28:52;;;;;;;4.27;1.57;;;;;;;8.35;100.00;101015.65;1808135;79;26386;-80
2021/05/23 01:31:24;;;;;;;4.03;1.80;;;;;;;8.28;100.00;101015.03;1808137;79;26208;-77
2021/05/23 01:33:55;;;;;;;4.33;1.70;;;;;;;8.21;100.00;101015.23;1808197;79;26281;-77
2021/05/23 01:36:29;;;;;;;2.80;1.60;;;;;;;8.38;100.00;101015.69;1808206;79;26650;-77
2021/05/23 01:39:00;;;;;;;6.00;1.70;;;;;;;8.33;100.00;101008.73;1808237;79;26282;-77
2021/05/23 01:41:32;;;;;;;4.50;1.43;;;;;;;8.30;100.00;101007.88;1808172;79;26749;-76
2021/05/23 01:44:02;;;;;;;3.33;1.30;;;;;;;8.18;100.00;101008.86;1808138;79;26266;-77
2021/05/23 01:46:33;;;;;;;2.37;1.43;;;;;;;8.10;100.00;101003.83;1808135;79;26271;-79
2021/05/23 01:49:03;;;;;;;3.67;1.63;;;;;;;8.08;100.00;101009.35;1808123;79;26261;-79
2021/05/23 01:51:33;;;;;;;6.27;1.73;;;;;;;8.08;100.00;101011.58;1808129;79;26215;-80
2021/05/23 01:54:04;;;;;;;4.67;1.50;;;;;;;8.12;100.00;101007.17;1808191;79;26619;-80
2021/05/23 01:56:34;;;;;;;7.93;1.77;;;;;;;7.98;100.00;101011.48;1808080;79;26219;-80
2021/05/23 01:59:04;;;;;;;3.37;1.50;;;;;;;8.04;100.00;101019.28;1808060;77;26329;-80
2021/05/23 02:01:34;;;;;;;3.70;1.47;;;;;;;7.99;100.00;101010.39;1808216;79;26261;-80
2021/05/23 02:04:05;;;;;;;5.00;1.77;;;;;;;7.98;100.00;101010.64;1808096;78;26302;-80
2021/05/23 02:06:35;;;;;;;2.30;1.47;;;;;;;7.92;100.00;101013.06;1808216;79;26222;-80
2021/05/23 02:09:05;;;;;;;2.87;1.40;;;;;;;7.93;100.00;101010.59;1808173;79;26302;-80
2021/05/23 02:11:35;;;;;;;5.63;1.80;;;;;;;7.91;100.00;101011.42;1808218;79;26279;-79
2021/05/23 02:14:05;;;;;;;3.77;1.50;;;;;;;7.92;100.00;101014.45;1808187;79;26223;-79
2021/05/23 02:16:35;;;;;;;3.03;1.50;;;;;;;7.92;100.00;101015.83;1808249;79;26343;-79
2021/05/23 02:19:07;;;;;;;5.13;1.70;;;;;;;7.88;100.00;101022.45;1808142;79;26274;-80
2021/05/23 02:21:37;;;;;;;4.13;1.90;;;;;;;7.76;100.00;101018.48;1808074;79;26410;-80
2021/05/23 02:24:08;;;;;;;4.80;1.53;;;;;;;7.63;100.00;101019.45;1808093;79;26796;-80
2021/05/23 02:26:38;;;;;;;4.63;1.70;;;;;;;7.75;100.00;101018.19;1808111;79;26220;-80
2021/05/23 02:29:08;;;;;;;3.47;1.50;;;;;;;7.64;100.00;101019.74;1808139;79;26446;-80
2021/05/23 02:31:38;;;;;;;4.57;1.63;;;;;;;7.70;100.00;101015.37;1808114;79;26717;-80
2021/05/23 02:34:07;;;;;;;3.13;1.50;;;;;;;7.65;100.00;101015.34;1808098;79;26221;-80
2021/05/23 02:36:37;;;;;;;3.03;1.60;;;;;;;7.66;100.00;101019.75;1808140;79;26219;-80
2021/05/23 02:39:07;;;;;;;3.33;1.70;;;;;;;7.54;100.00;101019.63;1808171;79;26290;-80
2021/05/23 02:41:37;;;;;;;3.33;1.60;;;;;;;7.50;100.00;101029.00;1808149;79;26295;-80
2021/05/23 02:44:07;;;;;;;2.17;1.20;;;;;;;7.54;100.00;101030.14;1808173;79;26212;-80
2021/05/23 02:46:38;;;;;;;3.10;1.33;;;;;;;7.54;100.00;101032.07;1808157;79;26212;-79
2021/05/23 02:49:08;;;;;;;1.30;1.17;;;;;;;7.39;100.00;101029.16;1808163;79;26304;-79
2021/05/23 02:51:38;;;;;;;2.63;1.47;;;;;;;7.36;100.00;101026.92;1808117;79;26212;-80
2021/05/23 02:54:09;;;;;;;3.13;1.43;;;;;;;7.11;100.00;101029.66;1808166;79;26347;-80
2021/05/23 02:56:39;;;;;;;4.67;1.67;;;;;;;7.00;100.00;101034.78;1808158;79;26263;-79
2021/05/23 02:59:09;;;;;;;5.57;1.63;;;;;;;7.12;100.00;101034.10;1808076;77;26682;-79
2021/05/23 03:01:38;;;;;;;3.67;1.63;;;;;;;7.04;100.00;101031.80;1808272;77;26823;-79
2021/05/23 03:04:08;;;;;;;6.87;2.03;;;;;;;7.12;100.00;101028.58;1808106;78;26705;-79
2021/05/23 03:06:38;;;;;;;3.97;2.00;;;;;;;7.05;100.00;101033.47;1808191;79;26427;-80
2021/05/23 03:09:08;;;;;;;4.37;1.97;;;;;;;7.09;100.00;101035.17;1808209;79;26258;-79
2021/05/23 03:11:38;;;;;;;3.57;1.80;;;;;;;7.18;100.00;101036.39;1808197;79;26263;-79
2021/05/23 03:14:07;;;;;;;6.97;2.10;;;;;;;7.11;100.00;101035.19;1808218;79;26200;-79
2021/05/23 03:16:37;;;;;;;5.23;2.13;;;;;;;7.04;100.00;101029.03;1808183;79;26658;-79
2021/05/23 03:19:07;;;;;;;4.53;2.30;;;;;;;7.05;100.00;101027.95;1808253;79;26741;-79
2021/05/23 03:21:38;;;;;;;3.20;1.90;;;;;;;6.95;100.00;101033.87;1808200;79;26354;-79
2021/05/23 03:24:09;;;;;;;6.23;2.63;;;;;;;6.90;100.00;101034.64;1808176;79;26336;-79
2021/05/23 03:26:39;;;;;;;8.00;2.20;;;;;;;7.03;100.00;101034.27;1808277;79;26259;-79
2021/05/23 03:29:09;;;;;;;5.10;2.10;;;;;;;7.11;100.00;101031.59;1808246;79;26811;-79
2021/05/23 03:31:42;;;;;;;5.13;2.43;;;;;;;7.10;100.00;101030.75;1808179;79;26856;-78
2021/05/23 03:34:11;;;;;;;5.23;2.30;;;;;;;7.00;100.00;101031.19;1808253;79;26243;-79
2021/05/23 03:36:41;;;;;;;7.57;2.53;;;;;;;7.13;100.00;101033.02;1808271;79;26705;-79
2021/05/23 03:39:12;;;;;;;11.30;2.53;;;;;;;7.08;100.00;101037.09;1808274;79;26313;-78
2021/05/23 03:41:42;;;;;;;4.83;2.13;;;;;;;7.02;100.00;101032.59;1808201;79;26271;-77
2021/05/23 03:44:29;;;;;;;4.27;2.07;;;;;;;7.00;100.00;101039.47;1740778;81;33719;-79
2021/05/23 03:46:58;;;;;;;4.77;2.13;;;;;;;7.04;100.00;101039.25;1741726;81;26803;-78
2021/05/23 03:49:28;;;;;;;3.90;1.93;;;;;;;7.07;100.00;101036.80;1741809;81;26832;-78
2021/05/23 03:51:58;;;;;;;5.17;2.10;;;;;;;6.97;100.00;101044.97;1742024;81;26380;-79
2021/05/23 03:54:28;;;;;;;4.43;1.90;;;;;;;6.99;100.00;101046.08;1741204;81;26254;-78
2021/05/23 03:56:58;;;;;;;4.70;1.70;;;;;;;6.96;100.00;101046.06;1741129;81;26308;-78
2021/05/23 03:59:28;;;;;;;4.73;1.90;;;;;;;6.90;100.00;101041.55;1741364;81;26329;-78
2021/05/23 04:01:58;;;;;;;5.42;2.15;;;;;;;6.92;100.00;101050.97;1707782;81;929483;-78
2021/05/23 04:04:45;;;;;;;5.93;1.97;;;;;;;6.78;100.00;101056.86;1713250;83;26273;-78
2021/05/23 04:07:00;;;;;;;3.07;1.80;;;;;;;6.73;100.00;101045.74;1712829;83;26653;-79
2021/05/23 04:09:30;;;;;;;6.80;2.37;;;;;;;6.66;100.00;101060.28;1712733;83;26335;-79
2021/05/23 04:11:59;;;;;;;4.93;2.03;;;;;;;6.71;100.00;101065.05;1713425;83;26273;-78
2021/05/23 04:14:29;;;;;;;2.93;1.93;;;;;;;6.95;100.00;101058.73;1713254;83;26265;-80
2021/05/23 04:17:02;;;;;;;4.83;2.17;;;;;;;6.95;100.00;101060.95;1774457;81;26192;-79
2021/05/23 04:19:33;;;;;;;3.40;1.80;;;;;;;6.76;100.00;101057.65;1777509;81;26239;-78
2021/05/23 04:22:03;;;;;;;3.43;2.23;;;;;;;6.87;100.00;101062.78;1777589;81;26243;-78
2021/05/23 04:24:36;;;;;;;3.90;1.97;;;;;;;6.74;100.00;101066.75;1777570;81;26761;-78
2021/05/23 04:27:07;;;;;;;3.63;2.17;;;;;;;6.69;100.00;101065.83;1777528;81;26663;-79
2021/05/23 04:29:38;;;;;;;3.90;1.93;;;;;;;6.68;100.00;101064.15;1777599;81;26270;-79
2021/05/23 04:32:09;;;;;;;4.13;2.30;;;;;;;6.86;100.00;101060.56;1777490;81;26640;-79
2021/05/23 04:34:39;;;;;;;7.93;2.37;;;;;;;6.83;100.00;101058.86;1777555;81;26184;-79
2021/05/23 04:37:09;;;;;;;2.83;1.83;;;;;;;6.88;100.00;101062.23;1777569;81;26608;-79
2021/05/23 04:39:39;;;;;;;5.63;2.27;;;;;;;6.84;100.00;101064.68;1777567;81;26196;-78
2021/05/23 04:42:09;;;;;;;4.57;2.20;;;;;;;7.06;100.00;101071.02;1777570;81;26190;-79
2021/05/23 04:44:39;;;;;;;4.43;1.63;;;;;;;6.99;100.00;101066.79;1777641;81;26184;-78
2021/05/23 04:47:09;;;;;;;5.93;2.27;;;;;;;6.97;100.00;101068.45;1777611;81;26266;-78
2021/05/23 04:49:39;;;;;;;5.57;2.03;;;;;;;7.18;100.00;101070.38;1777521;81;26674;-78
2021/05/23 04:52:10;;;;;;;5.50;2.20;;;;;;;7.25;100.00;101064.09;1777584;81;26239;-78
2021/05/23 04:54:41;;;;;;;6.47;2.07;;;;;;;7.37;100.00;101058.42;1777517;81;26235;-78
2021/05/23 04:57:11;;;;;;;5.03;2.37;;;;;;;7.54;100.00;101059.70;1777549;81;26211;-79
2021/05/23 04:59:41;;;;;;;4.43;1.60;;;;;;;7.62;100.00;101061.45;1777567;81;26235;-78
2021/05/23 05:02:11;;;;;;;1.83;1.60;;;;;;;7.72;100.00;101055.20;1777370;79;26691;-79
2021/05/23 05:04:41;;;;;;;4.57;1.77;;;;;;;7.59;100.00;101059.77;1777587;81;26310;-78
2021/05/23 05:07:11;;;;;;;6.17;1.73;;;;;;;7.73;100.00;101062.41;1777508;81;26219;-78
2021/05/23 05:09:41;;;;;;;3.30;2.03;;;;;;;7.65;100.00;101060.13;1777479;81;26571;-78
2021/05/23 05:12:12;;;;;;;7.37;1.80;;;;;;;7.68;100.00;101062.36;1777495;81;26657;-77
2021/05/23 05:14:42;;;;;;;3.33;1.80;;;;;;;7.60;100.00;101059.52;1777482;81;26344;-77
2021/05/23 05:17:11;;;;;;;7.50;2.10;;;;;;;7.60;100.00;101066.44;1777560;81;26235;-78
2021/05/23 05:19:42;;;;;;;2.80;1.20;;;;;;;7.60;100.00;101067.81;1777523;81;26328;-77
2021/05/23 05:22:12;;;;;;;3.47;1.80;;;;;;;7.69;100.00;101073.16;1777522;81;26632;-78
2021/05/23 05:24:42;;;;;;;3.63;1.60;;;;;;;7.85;100.00;101077.45;1777508;81;26196;-79
2021/05/23 05:27:11;;;;;;;4.37;1.67;;;;;;;7.84;100.00;101067.48;1777590;81;26252;-79
2021/05/23 05:29:41;;;;;;;3.57;1.60;;;;;;;7.86;100.00;101068.91;1777537;81;26337;-78
2021/05/23 05:32:11;;;;;;;5.50;1.90;;;;;;;7.95;100.00;101065.11;1777527;81;26757;-78
2021/05/23 05:34:41;;;;;;;4.07;1.87;;;;;;;7.97;100.00;101065.67;1777506;81;26774;-78
2021/05/23 05:37:12;;;;;;;5.87;2.23;;;;;;;7.97;100.00;101058.20;1777502;81;26748;-78
2021/05/23 05:39:41;;;;;;;5.37;1.60;;;;;;;8.13;100.00;101068.84;1777487;81;26256;-80
2021/05/23 05:42:11;;;;;;;4.37;1.50;;;;;;;8.21;100.00;101062.28;1777508;80;26415;-79
2021/05/23 05:44:41;;;;;;;6.43;1.90;;;;;;;8.21;100.00;101072.54;1777469;81;26682;-79
2021/05/23 05:47:11;;;;;;;6.00;2.13;;;;;;;8.32;100.00;101067.94;1777522;81;26310;-78
2021/05/23 05:49:41;;;;;;;6.37;2.17;;;;;;;8.28;100.00;101075.07;1777520;81;26311;-78
2021/05/23 05:52:11;;;;;;;2.97;1.67;;;;;;;8.27;100.00;101075.62;1777538;81;26712;-79
2021/05/23 05:54:40;;;;;;;5.80;1.80;;;;;;;8.27;100.00;101079.77;1777523;81;26201;-77
2021/05/23 05:57:10;;;;;;;4.13;1.87;;;;;;;8.23;100.00;101080.02;1777531;81;26188;-77
2021/05/23 05:59:40;;;;;;;6.70;1.80;;;;;;;8.28;100.00;101078.67;1777632;80;26607;-78
2021/05/23 06:02:10;;;;;;;3.87;1.80;;;;;;;8.34;100.00;101072.67;1777500;79;26381;-79
2021/05/23 06:04:40;;;;;;;5.93;1.90;;;;;;;8.47;100.00;101068.07;1777482;81;26649;-77
2021/05/23 06:07:10;;;;;;;3.27;1.60;;;;;;;8.47;100.00;101068.07;1777468;81;26199;-77
2021/05/23 06:09:40;;;;;;;3.97;1.47;;;;;;;8.53;100.00;101069.20;1777496;81;26255;-76
2021/05/23 06:12:12;;;;;;;2.73;1.53;;;;;;;8.53;100.00;101073.91;1777468;81;26185;-82
2021/05/23 06:14:41;;;;;;;5.70;2.20;;;;;;;8.54;100.00;101070.88;1777601;81;26251;-80
2021/05/23 06:17:11;;;;;;;7.37;2.57;;;;;;;8.65;100.00;101075.38;1777551;81;26274;-79
2021/05/23 06:19:41;;;;;;;4.37;2.40;;;;;;;8.57;100.00;101065.34;1777605;81;26310;-79
2021/05/23 06:22:11;;;;;;;5.73;2.27;;;;;;;8.61;100.00;101067.32;1777770;81;26227;-82
2021/05/23 06:24:41;;;;;;;4.97;2.37;;;;;;;8.72;100.00;101068.23;1778009;80;26846;-81
2021/05/23 06:27:10;;;;;;;6.57;2.57;;;;;;;8.73;100.00;101067.11;1777577;81;26310;-82
2021/05/23 06:29:40;;;;;;;4.17;1.90;;;;;;;8.79;100.00;101063.83;1777610;81;26472;-81
2021/05/23 06:32:10;;;;;;;4.53;1.87;;;;;;;8.96;100.00;101057.55;1777541;81;26477;-81
2021/05/23 06:34:40;;;;;;;6.13;2.23;;;;;;;9.04;100.00;101062.02;1777489;81;26227;-82
2021/05/23 06:37:10;;;;;;;3.17;1.57;;;;;;;9.19;100.00;101054.89;1777495;81;26263;-81
2021/05/23 06:39:39;;;;;;;3.27;1.60;;;;;;;9.20;100.00;101050.44;1777475;81;26189;-81
2021/05/23 06:42:09;;;;;;;4.77;1.63;;;;;;;9.36;100.00;101049.97;1777590;81;26251;-81
2021/05/23 06:44:39;;;;;;;5.53;1.63;;;;;;;9.51;100.00;101046.67;1777645;81;26180;-81
2021/05/23 06:47:09;;;;;;;2.37;1.43;;;;;;;9.63;100.00;101040.86;1777648;81;26184;-82
2021/05/23 06:49:40;;;;;;;6.73;2.03;;;;;;;9.79;100.00;101034.81;1777567;81;26718;-83
2021/05/23 06:52:09;;;;;;;3.67;1.60;;;;;;;9.87;100.00;101036.48;1777897;81;26286;-83
2021/05/23 06:54:39;;;;;;;5.70;2.20;;;;;;;9.94;100.00;101034.81;1777812;81;26212;-84
2021/05/23 06:57:09;;;;;;;3.40;1.40;;;;;;;10.10;100.00;101030.92;1777875;81;26658;-84
2021/05/23 06:59:39;;;;;;;4.87;2.03;;;;;;;10.22;100.00;101030.70;1777699;81;26205;-81
2021/05/23 07:02:09;;;;;;;3.67;1.40;;;;;;;10.39;100.00;101032.63;1777533;79;26216;-81
2021/05/23 07:04:39;;;;;;;3.17;1.70;;;;;;;10.37;100.00;101029.28;1777674;81;26306;-80
2021/05/23 07:07:09;;;;;;;4.20;1.50;;;;;;;10.39;100.00;101029.30;1777648;81;26262;-77
2021/05/23 07:09:39;;;;;;;3.67;1.50;;;;;;;10.50;100.00;101031.48;1777596;81;26231;-78
2021/05/23 07:12:10;;;;;;;3.60;1.47;;;;;;;10.59;100.00;101033.97;1777603;81;26644;-78
2021/05/23 07:14:40;;;;;;;4.60;1.10;;;;;;;10.59;100.00;101035.36;1777561;81;26372;-78
2021/05/23 07:17:10;;;;;;;2.10;1.30;;;;;;;10.64;100.00;101036.75;1777668;81;26437;-78
2021/05/23 07:19:40;;;;;;;2.33;1.20;;;;;;;10.80;100.00;101034.20;1777633;81;26739;-79
2021/05/23 07:22:10;;;;;;;3.23;1.13;;;;;;;10.78;100.00;101026.69;1777638;81;26544;-80
2021/05/23 07:24:40;;;;;;;3.63;1.47;;;;;;;10.92;100.00;101019.42;1777549;81;26687;-83
2021/05/23 07:27:09;;;;;;;2.97;1.23;;;;;;;10.95;100.00;101029.16;1777644;81;26286;-79
2021/05/23 07:29:39;;;;;;;3.50;1.30;;;;;;;11.04;100.00;101021.06;1777535;81;26189;-79
2021/05/23 07:32:09;;;;;;;5.33;1.50;;;;;;;11.06;100.00;101024.38;1777571;81;26188;-78
2021/05/23 07:34:39;;;;;;;2.73;1.43;;;;;;;11.04;100.00;101026.63;1777635;81;26196;-81
2021/05/23 07:37:09;;;;;;;5.03;1.60;;;;;;;10.99;100.00;101022.47;1777748;81;26627;-78
2021/05/23 07:39:39;;;;;;;2.97;1.40;;;;;;;10.95;100.00;101029.16;1777606;81;26667;-78
2021/05/23 07:42:09;;;;;;;4.47;1.33;;;;;;;10.91;100.00;101024.70;1777551;81;26188;-77
2021/05/23 07:44:39;;;;;;;4.20;1.30;;;;;;;10.95;100.00;101027.19;1777547;81;26270;-75
2021/05/23 07:47:09;;;;;;;7.97;2.43;;;;;;;11.04;100.00;101028.82;1777504;81;26184;-77
2021/05/23 07:49:41;;;;;;;4.00;1.30;;;;;;;11.14;100.00;101019.62;1777504;81;26246;-75
2021/05/23 07:52:12;;;;;;;2.30;1.30;;;;;;;11.35;100.00;101029.52;1777485;80;26678;-77
2021/05/23 07:54:42;;;;;;;5.53;1.63;;;;;;;11.43;100.00;101024.75;1777520;81;26699;-77
2021/05/23 07:57:12;;;;;;;4.97;1.60;;;;;;;11.53;100.00;101021.92;1777555;81;26687;-75
2021/05/23 07:59:42;;;;;;;2.53;1.30;;;;;;;11.56;100.00;101033.85;1777592;81;26314;-79
2021/05/23 08:02:12;;;;;;;3.63;1.40;;;;;;;11.69;100.00;101031.83;1777530;79;26220;-78
2021/05/23 08:04:42;;;;;;;4.63;1.20;;;;;;;11.76;100.00;101021.25;1777575;79;26392;-77
2021/05/23 08:07:12;;;;;;;3.00;1.30;;;;;;;11.82;100.00;101024.25;1777574;81;26725;-77
2021/05/23 08:09:42;;;;;;;3.73;1.50;;;;;;;11.88;100.00;101022.27;1777579;81;26617;-76
2021/05/23 08:12:12;;;;;;;4.97;1.77;;;;;;;11.84;100.00;101017.02;1777546;81;26286;-77
2021/05/23 08:14:42;;;;;;;7.37;1.90;;;;;;;11.88;100.00;101015.88;1777571;81;26241;-77
2021/05/23 08:17:12;;;;;;;5.00;1.47;;;;;;;11.94;100.00;101011.94;1777555;81;26330;-77
2021/05/23 08:19:42;;;;;;;2.23;0.93;;;;;;;12.17;100.00;101018.97;1777557;81;26328;-77
2021/05/23 08:22:12;;;;;;;2.80;1.10;;;;;;;12.23;100.00;101019.77;1777555;81;26324;-77
2021/05/23 08:24:42;;;;;;;4.47;1.30;;;;;;;12.17;100.00;101005.60;1777543;81;26259;-77
2021/05/23 08:27:12;;;;;;;2.47;1.00;;;;;;;12.06;100.00;101006.83;1777552;81;26719;-77
2021/05/23 08:29:42;;;;;;;4.97;1.23;;;;;;;11.99;100.00;101006.31;1777589;81;26243;-77
2021/05/23 08:32:12;;;;;;;4.10;1.40;;;;;;;12.20;100.00;101007.80;1777557;81;26647;-77
2021/05/23 08:34:41;;;;;;;2.47;1.10;;;;;;;12.27;100.00;101011.92;1777578;81;26321;-77
2021/05/23 08:37:11;;;;;;;5.20;1.93;;;;;;;12.30;100.00;101005.76;1777537;81;26224;-77
2021/05/23 08:39:41;;;;;;;2.63;1.33;;;;;;;12.39;100.00;101006.52;1777595;81;26263;-77
2021/05/23 08:42:11;;;;;;;3.60;1.17;;;;;;;12.52;100.00;101005.83;1777580;81;26731;-77
2021/05/23 08:44:41;;;;;;;3.53;1.13;;;;;;;12.58;100.00;101005.47;1777548;81;26685;-77
2021/05/23 08:47:13;;;;;;;7.10;1.57;;;;;;;12.73;100.00;101011.45;1777573;81;26303;-77
2021/05/23 08:49:44;;;;;;;3.97;1.63;;;;;;;12.68;100.00;101005.37;1777620;81;26275;-77
2021/05/23 08:52:13;;;;;;;3.00;1.10;;;;;;;12.93;100.00;100995.88;1777560;81;26243;-77
2021/05/23 08:54:43;;;;;;;2.00;1.10;;;;;;;13.10;100.00;100997.64;1777563;81;26247;-77
2021/05/23 08:57:15;;;;;;;2.03;1.10;;;;;;;13.33;100.00;100994.55;1777510;81;26244;-77
2021/05/23 08:59:46;;;;;;;4.10;1.37;;;;;;;13.64;100.00;100994.39;1777539;81;26227;-77
2021/05/23 09:02:15;;;;;;;3.63;1.23;;;;;;;13.41;100.00;100986.91;1777556;79;26223;-77
2021/05/23 09:04:50;;;;;;;3.73;1.23;;;;;;;13.47;100.00;100986.28;1777479;79;26298;-77
2021/05/23 09:07:21;;;;;;;3.80;1.20;;;;;;;13.52;100.00;100982.02;1777563;81;26294;-76
2021/05/23 09:09:51;;;;;;;2.77;1.30;;;;;;;13.34;100.00;100982.84;1777565;81;26781;-77
2021/05/23 09:12:21;;;;;;;4.70;1.50;;;;;;;13.38;100.00;100984.73;1777581;81;26328;-77
2021/05/23 09:14:52;;;;;;;6.43;1.67;;;;;;;13.19;100.00;100980.52;1777624;81;26991;-77
2021/05/23 09:17:27;;;;;;;4.03;1.00;;;;;;;13.24;100.00;100979.62;1777644;81;26275;-77
2021/05/23 09:19:58;;;;;;;3.63;1.10;;;;;;;13.43;100.00;100974.06;1777593;81;26269;-77
2021/05/23 09:22:29;;;;;;;3.30;1.10;;;;;;;13.33;100.00;100975.59;1777526;81;26191;-77
2021/05/23 09:25:01;;;;;;;2.53;0.97;;;;;;;13.27;100.00;100973.98;1777519;81;26254;-77
2021/05/23 09:27:33;;;;;;;3.13;1.00;;;;;;;13.03;100.00;100960.91;1777526;81;26662;-77
2021/05/23 09:30:07;;;;;;;2.47;1.07;;;;;;;12.99;100.00;100963.19;1777607;81;26212;-76
2021/05/23 09:32:44;;;;;;;2.87;0.97;;;;;;;12.90;100.00;100959.40;1777545;81;26250;-77
2021/05/23 09:35:15;;;;;;;5.77;1.13;;;;;;;12.94;100.00;100965.48;1777559;81;26733;-76
2021/05/23 09:37:46;;;;;;;4.13;1.37;;;;;;;12.87;100.00;100959.44;1777518;81;26599;-77
2021/05/23 09:40:21;;;;;;;4.27;1.30;;;;;;;12.73;100.00;100969.08;1777558;81;26180;-76
2021/05/23 09:42:53;;;;;;;8.43;1.70;;;;;;;12.58;100.00;100969.23;1777542;81;26306;-77
2021/05/23 09:45:24;;;;;;;4.70;1.20;;;;;;;12.61;100.00;100981.77;1777512;81;26255;-76
2021/05/23 09:47:56;;;;;;;2.70;0.90;;;;;;;12.40;100.00;100996.48;1777470;81;26355;-76
2021/05/23 09:50:36;;;;;;;1.37;0.50;;;;;;;12.10;100.00;100996.77;1777506;81;26269;-76
2021/05/23 09:53:24;;;;;;;3.23;0.70;;;;;;;11.81;100.00;101007.83;1777554;81;26247;-76
2021/05/23 09:56:00;;;;;;;2.77;1.00;;;;;;;11.63;100.00;100999.61;1777542;81;26259;-76
2021/05/23 09:58:33;;;;;;;2.47;0.97;;;;;;;11.88;100.00;101000.01;1777484;81;26772;-76
2021/05/23 10:01:04;;;;;;;3.13;0.90;;;;;;;12.22;100.00;100997.20;1777558;81;26196;-76
2021/05/23 10:03:35;;;;;;;1.50;0.70;;;;;;;12.60;100.00;101006.02;1777540;79;26220;-76
2021/05/23 10:06:07;;;;;;;1.83;1.00;;;;;;;12.86;100.00;101005.17;1777561;79;26310;-76
2021/05/23 10:08:37;;;;;;;1.80;0.93;;;;;;;12.90;100.00;101001.22;1777482;81;26223;-76
2021/05/23 10:11:07;;;;;;;1.27;0.60;;;;;;;12.81;100.00;101008.57;1777463;81;26305;-76
2021/05/23 10:13:37;;;;;;;1.93;0.60;;;;;;;12.66;100.00;101006.21;1777525;81;26240;-76
2021/05/23 10:16:08;;;;;;;1.37;0.80;;;;;;;12.39;100.00;101003.17;1777533;81;26231;-76
2021/05/23 10:18:39;;;;;;;2.03;0.83;;;;;;;12.64;100.00;101004.86;1777548;81;26615;-76
2021/05/23 10:21:09;;;;;;;1.80;0.80;;;;;;;12.61;100.00;101010.47;1777551;81;26343;-76
2021/05/23 10:23:43;;;;;;;1.50;0.87;;;;;;;12.79;100.00;101009.69;1777550;81;26211;-77
2021/05/23 10:26:14;;;;;;;1.63;0.97;;;;;;;12.87;100.00;101010.19;1777517;81;26316;-76
2021/05/23 10:28:46;;;;;;;3.93;0.80;;;;;;;13.09;100.00;101000.72;1777517;81;26270;-76
2021/05/23 10:31:18;;;;;;;3.23;0.87;;;;;;;13.14;100.00;101002.05;1777525;81;26255;-77
2021/05/23 10:33:51;;;;;;;1.40;1.00;;;;;;;13.04;100.00;100996.59;1776348;80;26249;-76
2021/05/23 10:36:33;;;;;;;1.60;1.00;;;;;;;13.12;100.00;101000.98;1777465;80;26678;-76
2021/05/23 10:39:06;;;;;;;4.07;0.87;;;;;;;13.10;100.00;101014.38;1777460;81;26240;-76
2021/05/23 10:41:37;;;;;;;3.77;1.07;;;;;;;12.93;100.00;101028.50;1777463;81;26592;-76
2021/05/23 10:44:10;;;;;;;4.23;1.73;;;;;;;12.30;100.00;100997.96;1777467;81;26243;-76
2021/05/23 10:46:49;;;;;;;1.40;0.63;;;;;;;12.42;100.00;100999.79;1777452;81;26623;-76
2021/05/23 10:49:19;;;;;;;6.13;1.37;;;;;;;12.52;100.00;100993.29;1777532;81;26263;-76
2021/05/23 10:52:00;;;;;;;2.33;1.33;;;;;;;12.60;100.00;100994.03;1777437;81;26244;-76
2021/05/23 10:54:30;;;;;;;5.60;1.20;;;;;;;12.68;100.00;100990.59;1777579;81;26343;-76
2021/05/23 10:57:01;;;;;;;3.53;0.90;;;;;;;12.80;100.00;100981.25;1777446;81;26216;-76
2021/05/23 10:59:32;;;;;;;2.40;1.03;;;;;;;12.85;100.00;100970.05;1777472;81;26312;-76
2021/05/23 11:02:02;;;;;;;3.30;1.20;;;;;;;12.90;100.00;100966.37;1777442;79;26254;-76
2021/05/23 11:04:40;;;;;;;1.63;0.83;;;;;;;12.98;100.00;100958.17;1777477;81;26321;-76
2021/05/23 11:07:12;;;;;;;4.00;1.47;;;;;;;13.10;100.00;100948.84;1777375;79;26332;-75
2021/05/23 11:09:43;;;;;;;2.53;1.00;;;;;;;13.28;100.00;100944.41;1777476;81;26719;-75
2021/05/23 11:12:15;;;;;;;3.93;1.27;;;;;;;13.45;100.00;100941.09;1777473;81;26722;-75
2021/05/23 11:14:55;;;;;;;1.37;0.83;;;;;;;13.81;100.00;100939.41;1777425;81;26522;-78
2021/05/23 11:17:25;;;;;;;6.37;1.53;;;;;;;13.85;100.00;100940.45;1777446;81;26196;-76
2021/05/23 11:19:56;;;;;;;4.20;1.43;;;;;;;13.91;100.00;100921.63;1777507;81;26188;-76
2021/05/23 11:22:27;;;;;;;3.47;1.30;;;;;;;14.12;100.00;100925.71;1777433;81;26195;-76
2021/05/23 11:24:57;;;;;;;4.40;1.60;;;;;;;14.18;100.00;100933.45;1777319;81;26309;-76
2021/05/23 11:27:27;;;;;;;6.27;1.40;;;;;;;14.09;100.00;100931.92;1777327;81;26776;-75
2021/05/23 11:29:57;;;;;;;3.13;1.10;;;;;;;13.97;100.00;100918.45;1777370;81;26235;-75
2021/05/23 11:32:27;;;;;;;6.00;1.40;;;;;;;13.81;100.00;100902.27;1777405;81;26243;-75
2021/05/23 11:34:58;;;;;;;3.80;1.37;;;;;;;13.90;100.00;100908.26;1777460;81;26246;-76
2021/05/23 11:37:36;;;;;;;5.97;1.40;;;;;;;13.91;100.00;100915.48;1777430;81;26243;-76
2021/05/23 11:40:12;;;;;;;5.73;1.80;;;;;;;13.94;100.00;100914.89;1777449;81;26348;-75